EFKT

Kittila Airport

Kittila, Finland
METAR EFKT 172120Z 35012KT 9999 FEW034 02/M01 Q1039
Observed Flight Rules
Nov-17 @ 21:20 UTC (17 minutes ago) Visual Flight Rules
Wind Visibility Clouds
350° at 12 knots 10,000+ meters
  • Few at 3,400' AGL
Temperatures Readings
Current 2°C / 36°F
Dewpoint -1°C / 30°F
Humidity 81%
Altimeter 30.68" Hg
Pressure 1039 hPa
Elevation 643
METAR EFKT 172120Z 35012KT 9999 FEW034 02/M01 Q1039
Observed Flight Rules
Nov-17 @ 21:20 UTC
(17 minutes ago)
VFR
Wind Visibility
350° at 12 knots 10,000+ meters
Clouds
  • Few at 3,400' AGL
Temperature Dewpoint
2°C / 36°F -1°C / 30°F
Humidity Altimeter Pressure
81% 30.68" Hg 1039 hPa